createdAt,value
2022-11-14T00:00:23.214Z,4.57
2022-11-14T00:04:47.086Z,4.58
2022-11-14T00:09:08.554Z,4.64
2022-11-14T00:13:30.275Z,4.59
2022-11-14T00:17:53.351Z,4.65
2022-11-14T00:22:15.367Z,4.65
2022-11-14T00:26:36.785Z,4.68
2022-11-14T00:30:58.037Z,4.70
2022-11-14T00:35:21.112Z,4.71
2022-11-14T00:39:42.816Z,4.73
2022-11-14T00:44:04.459Z,4.70
2022-11-14T00:48:25.975Z,4.70
2022-11-14T00:52:49.190Z,4.72
2022-11-14T00:57:10.767Z,4.75
2022-11-14T01:01:32.595Z,4.78
2022-11-14T01:05:53.919Z,4.78
2022-11-14T01:10:17.468Z,4.81
2022-11-14T01:14:41.128Z,4.84
2022-11-14T01:19:03.222Z,4.86
2022-11-14T01:23:25.005Z,4.88
2022-11-14T01:27:48.013Z,4.90
2022-11-14T01:32:09.807Z,4.92
2022-11-14T01:36:31.188Z,4.92
2022-11-14T01:40:52.926Z,4.92
2022-11-14T01:45:57.096Z,4.94
2022-11-14T01:50:20.284Z,4.90
2022-11-14T01:54:46.084Z,4.92
2022-11-14T01:59:12.528Z,4.91
2022-11-14T02:03:37.101Z,4.92
2022-11-14T02:07:59.857Z,4.94
2022-11-14T02:12:21.422Z,5.02
2022-11-14T02:16:55.711Z,5.09
2022-11-14T02:21:27.046Z,5.15
2022-11-14T02:25:48.823Z,5.18
2022-11-14T02:30:13.864Z,5.19
2022-11-14T02:34:36.027Z,5.23
2022-11-14T02:38:59.059Z,5.24
2022-11-14T02:43:21.117Z,5.23
2022-11-14T02:47:42.423Z,5.24
2022-11-14T02:52:04.358Z,5.24
2022-11-14T02:56:27.812Z,5.27
2022-11-14T03:01:14.093Z,5.27
2022-11-14T03:05:30.893Z,5.24
2022-11-14T03:09:52.746Z,5.20
2022-11-14T03:14:15.744Z,5.13
2022-11-14T03:18:38.088Z,5.08
2022-11-14T03:23:00.408Z,5.02
2022-11-14T03:27:21.962Z,4.96
2022-11-14T03:31:44.775Z,4.96
2022-11-14T03:36:07.780Z,5.04
2022-11-14T03:40:29.455Z,5.10
2022-11-14T03:44:50.891Z,5.14
2022-11-14T03:49:13.710Z,5.18
2022-11-14T03:53:35.587Z,5.19
2022-11-14T03:57:57.282Z,5.17
2022-11-14T04:02:18.935Z,5.16
2022-11-14T04:06:42.349Z,5.20
2022-11-14T04:11:03.901Z,5.20
2022-11-14T04:15:25.486Z,5.22
2022-11-14T04:19:47.123Z,5.26
2022-11-14T04:24:11.310Z,5.27
2022-11-14T04:28:33.080Z,5.29
2022-11-14T04:32:55.078Z,5.31
2022-11-14T04:37:16.796Z,5.32
2022-11-14T04:41:39.880Z,5.38
2022-11-14T04:46:01.417Z,5.42
2022-11-14T04:50:23.087Z,5.42
2022-11-14T04:54:44.625Z,5.40
2022-11-14T04:59:07.737Z,5.40
2022-11-14T05:03:29.054Z,5.40
2022-11-14T05:07:50.362Z,5.36
2022-11-14T05:12:12.139Z,5.36
2022-11-14T05:16:35.360Z,5.34
2022-11-14T05:20:59.584Z,5.35
2022-11-14T05:25:20.947Z,5.38
2022-11-14T05:29:42.477Z,5.45
2022-11-14T05:34:05.482Z,5.44
2022-11-14T05:38:26.950Z,5.43
2022-11-14T05:42:48.373Z,5.43
2022-11-14T05:47:10.079Z,5.41
2022-11-14T05:51:33.169Z,5.45
2022-11-14T05:55:55.648Z,5.47
2022-11-14T06:00:18.129Z,5.51
2022-11-14T06:04:39.580Z,5.54
2022-11-14T06:09:03.107Z,5.58
2022-11-14T06:13:24.945Z,5.62
2022-11-14T06:17:46.843Z,5.67
2022-11-14T06:22:08.558Z,5.67
2022-11-14T06:26:33.019Z,5.68
2022-11-14T06:30:58.904Z,5.69
2022-11-14T06:35:20.652Z,5.68
2022-11-14T06:39:42.255Z,5.68
2022-11-14T06:44:05.689Z,5.72
2022-11-14T06:48:27.871Z,5.72
2022-11-14T06:52:50.006Z,5.72
2022-11-14T06:57:11.387Z,5.75
2022-11-14T07:01:34.463Z,5.76
2022-11-14T07:05:59.092Z,5.78
2022-11-14T07:10:20.560Z,5.81
2022-11-14T07:14:42.799Z,5.84
2022-11-14T07:19:09.190Z,5.88
2022-11-14T07:23:31.999Z,5.90
2022-11-14T07:27:53.753Z,5.95
2022-11-14T07:32:15.526Z,6.00
2022-11-14T07:36:38.540Z,6.03
2022-11-14T07:41:01.341Z,6.07
2022-11-14T07:45:22.956Z,6.10
2022-11-14T07:49:44.439Z,6.08
2022-11-14T07:54:07.661Z,6.05
2022-11-14T07:58:29.270Z,6.04
2022-11-14T08:02:50.845Z,6.05
2022-11-14T08:07:12.690Z,6.08
2022-11-14T08:11:50.901Z,6.11
2022-11-14T08:16:14.114Z,6.14
2022-11-14T08:20:35.705Z,6.15
2022-11-14T08:24:57.317Z,6.24
2022-11-14T08:29:20.345Z,6.29
2022-11-14T08:33:41.667Z,6.33
2022-11-14T08:38:03.338Z,6.38
2022-11-14T08:42:24.863Z,6.38
2022-11-14T08:46:48.130Z,6.39
2022-11-14T08:51:09.514Z,6.47
2022-11-14T08:55:31.160Z,6.57
2022-11-14T08:59:52.718Z,6.65
2022-11-14T09:04:16.474Z,6.71
2022-11-14T09:08:38.762Z,6.78
2022-11-14T09:13:02.095Z,6.80
2022-11-14T09:17:23.341Z,6.83
2022-11-14T09:21:46.332Z,6.90
2022-11-14T09:26:08.784Z,6.94
2022-11-14T09:30:30.451Z,6.98
2022-11-14T09:34:51.854Z,7.04
2022-11-14T09:39:14.841Z,7.08
2022-11-14T09:44:14.164Z,7.18
2022-11-14T09:48:38.858Z,7.23
2022-11-14T09:53:06.109Z,7.28
2022-11-14T09:57:30.328Z,7.31
2022-11-14T10:02:03.404Z,7.35
2022-11-14T10:06:32.130Z,7.41
2022-11-14T10:10:55.794Z,7.46
2022-11-14T10:15:26.545Z,7.43
2022-11-14T10:20:01.758Z,7.42
2022-11-14T10:24:39.651Z,7.46
2022-11-14T10:29:28.904Z,7.49
2022-11-14T10:34:00.765Z,7.59
2022-11-14T10:38:28.337Z,7.62
2022-11-14T10:42:55.771Z,7.63
2022-11-14T10:47:20.882Z,7.66
2022-11-14T10:51:47.581Z,7.61
2022-11-14T10:56:12.681Z,7.67
2022-11-14T11:00:34.336Z,7.70
2022-11-14T11:05:12.935Z,7.73
2022-11-14T11:10:03.779Z,7.70
2022-11-14T11:14:25.487Z,7.66
2022-11-14T11:18:50.635Z,7.69
2022-11-14T11:23:19.966Z,7.73
2022-11-14T11:27:43.045Z,7.70
2022-11-14T11:32:04.576Z,7.69
2022-11-14T11:36:27.791Z,7.71
2022-11-14T11:40:52.468Z,7.70
2022-11-14T11:45:18.494Z,7.79
2022-11-14T11:49:51.740Z,7.82
2022-11-14T11:54:19.808Z,7.82
2022-11-14T11:58:46.777Z,7.87
2022-11-14T12:03:20.274Z,7.95
2022-11-14T12:07:47.671Z,8.02
2022-11-14T12:12:18.482Z,8.14
2022-11-14T12:17:04.681Z,8.24
2022-11-14T12:21:45.723Z,8.34
2022-11-14T12:26:21.270Z,8.43
2022-11-14T12:30:49.360Z,8.50
2022-11-14T12:35:19.750Z,8.62
2022-11-14T12:39:43.277Z,8.70
2022-11-14T12:44:19.864Z,8.80
2022-11-14T12:48:43.277Z,8.85
2022-11-14T12:53:04.862Z,8.97
2022-11-14T12:57:51.556Z,9.03
2022-11-14T13:02:28.490Z,9.07
2022-11-14T13:07:01.617Z,9.19
2022-11-14T13:11:55.498Z,9.17
2022-11-14T13:16:45.267Z,9.19
2022-11-14T13:21:34.726Z,9.13
2022-11-14T13:26:29.012Z,9.07
2022-11-14T13:31:20.391Z,9.01
2022-11-14T13:36:05.738Z,8.97
2022-11-14T13:40:35.853Z,8.86
2022-11-14T13:45:41.822Z,8.73
2022-11-14T13:50:06.603Z,8.67
2022-11-14T13:54:29.838Z,8.60
2022-11-14T13:59:09.051Z,8.54
2022-11-14T14:03:55.477Z,8.51
2022-11-14T14:08:29.613Z,8.45
2022-11-14T14:13:05.895Z,8.44
2022-11-14T14:17:35.054Z,8.40
2022-11-14T14:22:04.017Z,8.35
2022-11-14T14:26:34.723Z,8.27
2022-11-14T14:31:04.515Z,8.18
2022-11-14T14:35:27.791Z,8.07
2022-11-14T14:40:00.093Z,7.96
2022-11-14T14:44:26.586Z,7.93
2022-11-14T14:48:49.647Z,7.90
2022-11-14T14:53:21.388Z,7.84
2022-11-14T14:57:43.222Z,7.78
2022-11-14T15:02:04.888Z,7.72
2022-11-14T15:06:31.344Z,7.71
2022-11-14T15:10:59.540Z,7.68
2022-11-14T15:15:25.720Z,7.65
2022-11-14T15:19:48.127Z,7.65
2022-11-14T15:24:17.754Z,7.69
2022-11-14T15:28:39.315Z,7.72
2022-11-14T15:33:02.380Z,7.70
2022-11-14T15:37:25.216Z,7.74
2022-11-14T15:41:48.351Z,7.76
2022-11-14T15:46:29.172Z,7.73
2022-11-14T15:50:51.670Z,7.71
2022-11-14T15:55:16.469Z,7.69
2022-11-14T15:59:39.807Z,7.64
2022-11-14T16:04:01.849Z,7.54
2022-11-14T16:08:23.246Z,7.45
2022-11-14T16:12:50.944Z,7.42
2022-11-14T16:17:17.018Z,7.45
2022-11-14T16:21:38.769Z,7.45
2022-11-14T16:26:00.042Z,7.49
2022-11-14T16:30:23.428Z,7.55
2022-11-14T16:34:46.427Z,7.57
2022-11-14T16:39:11.442Z,7.58
2022-11-14T16:43:33.581Z,7.58
2022-11-14T16:47:55.274Z,7.58
2022-11-14T16:52:19.081Z,7.62
2022-11-14T16:56:41.194Z,7.66
2022-11-14T17:01:02.841Z,7.68
2022-11-14T17:05:24.767Z,7.71
2022-11-14T17:09:48.236Z,7.75
2022-11-14T17:14:09.769Z,7.73
2022-11-14T17:18:35.650Z,7.71
2022-11-14T17:23:00.330Z,7.71
2022-11-14T17:27:23.403Z,7.73
2022-11-14T17:31:47.197Z,7.67
2022-11-14T17:36:11.605Z,7.64
2022-11-14T17:40:33.353Z,7.59
2022-11-14T17:44:58.600Z,7.60
2022-11-14T17:49:20.454Z,7.58
2022-11-14T17:53:45.267Z,7.59
2022-11-14T17:58:07.522Z,7.58
2022-11-14T18:02:30.512Z,7.57
2022-11-14T18:06:52.213Z,7.49
2022-11-14T18:11:15.324Z,7.42
2022-11-14T18:15:38.999Z,7.40
2022-11-14T18:20:01.844Z,7.31
2022-11-14T18:24:23.953Z,7.28
2022-11-14T18:28:45.995Z,7.29
2022-11-14T18:33:07.466Z,7.28
2022-11-14T18:37:32.607Z,7.24
2022-11-14T18:41:54.598Z,7.21
2022-11-14T18:46:18.011Z,7.17
2022-11-14T18:50:39.955Z,7.15
2022-11-14T18:55:14.992Z,7.10
2022-11-14T18:59:36.527Z,7.05
2022-11-14T19:04:00.036Z,7.01
2022-11-14T19:08:21.778Z,6.99
2022-11-14T19:12:47.812Z,6.95
2022-11-14T19:17:09.528Z,6.90
2022-11-14T19:21:31.669Z,6.83
2022-11-14T19:25:54.057Z,6.78
2022-11-14T19:30:18.175Z,6.72
2022-11-14T19:34:39.516Z,6.63
2022-11-14T19:39:02.749Z,6.58
2022-11-14T19:43:26.106Z,6.53
2022-11-14T19:47:48.813Z,6.46
2022-11-14T19:52:10.129Z,6.40
2022-11-14T19:56:31.844Z,6.30
2022-11-14T20:00:53.944Z,6.25
2022-11-14T20:05:17.098Z,6.28
2022-11-14T20:09:38.854Z,6.27
2022-11-14T20:14:02.276Z,6.28
2022-11-14T20:18:24.445Z,6.27
2022-11-14T20:22:47.454Z,6.26
2022-11-14T20:27:09.645Z,6.28
2022-11-14T20:31:32.231Z,6.26
2022-11-14T20:35:53.632Z,6.24
2022-11-14T20:40:17.360Z,6.23
2022-11-14T20:44:39.374Z,6.22
2022-11-14T20:49:01.213Z,6.19
2022-11-14T20:53:23.548Z,6.20
2022-11-14T20:57:46.628Z,6.21
2022-11-14T21:02:08.683Z,6.24
2022-11-14T21:06:30.239Z,6.25
2022-11-14T21:10:59.369Z,6.27
2022-11-14T21:15:22.489Z,6.29
2022-11-14T21:19:43.880Z,6.28
2022-11-14T21:24:06.654Z,6.29
2022-11-14T21:28:29.916Z,6.30
2022-11-14T21:32:55.897Z,6.33
2022-11-14T21:37:17.252Z,6.37
2022-11-14T21:41:39.129Z,6.38
2022-11-14T21:46:02.611Z,6.39
2022-11-14T21:50:25.356Z,6.37
2022-11-14T21:54:46.754Z,6.33
2022-11-14T21:59:14.412Z,6.33
2022-11-14T22:03:54.292Z,6.36
2022-11-14T22:08:17.962Z,6.31
2022-11-14T22:12:39.654Z,6.31
2022-11-14T22:17:01.174Z,6.25
2022-11-14T22:21:23.406Z,6.26
2022-11-14T22:25:53.963Z,6.25
2022-11-14T22:30:15.399Z,6.20
2022-11-14T22:34:36.844Z,6.15
2022-11-14T22:38:58.868Z,6.16
2022-11-14T22:43:22.436Z,6.19
2022-11-14T22:47:44.063Z,6.23
2022-11-14T22:52:05.680Z,6.24
2022-11-14T22:56:29.288Z,6.27
2022-11-14T23:00:52.800Z,6.27
2022-11-14T23:05:14.206Z,6.29
2022-11-14T23:09:35.816Z,6.28
2022-11-14T23:13:59.305Z,6.28
2022-11-14T23:18:24.058Z,6.26
2022-11-14T23:22:46.001Z,6.26
2022-11-14T23:27:07.807Z,6.22
2022-11-14T23:31:29.214Z,6.21
2022-11-14T23:35:52.234Z,6.22
2022-11-14T23:40:13.828Z,6.23
2022-11-14T23:44:35.422Z,6.26
2022-11-14T23:48:57.057Z,6.28
2022-11-14T23:53:20.683Z,6.28
2022-11-14T23:57:42.537Z,6.29
